sensor_id;sensor_type;location;lat;lon;timestamp;P1;durP1;ratioP1;P2;durP2;ratioP2
10469;SDS011;5282;47.052;15.458;2022-08-14T00:01:35;8.23;;;7.80;;
10469;SDS011;5282;47.052;15.458;2022-08-14T00:04:02;7.63;;;7.30;;
10469;SDS011;5282;47.052;15.458;2022-08-14T00:06:30;7.93;;;7.43;;
10469;SDS011;5282;47.052;15.458;2022-08-14T00:08:57;7.30;;;6.90;;
10469;SDS011;5282;47.052;15.458;2022-08-14T00:11:25;7.40;;;7.10;;
10469;SDS011;5282;47.052;15.458;2022-08-14T00:13:52;7.97;;;7.57;;
10469;SDS011;5282;47.052;15.458;2022-08-14T00:16:19;7.73;;;7.27;;
10469;SDS011;5282;47.052;15.458;2022-08-14T00:18:48;7.80;;;7.40;;
10469;SDS011;5282;47.052;15.458;2022-08-14T00:21:16;7.53;;;7.23;;
10469;SDS011;5282;47.052;15.458;2022-08-14T00:23:43;7.33;;;7.00;;
10469;SDS011;5282;47.052;15.458;2022-08-14T00:26:10;7.77;;;7.33;;
10469;SDS011;5282;47.052;15.458;2022-08-14T00:28:37;7.13;;;6.83;;
10469;SDS011;5282;47.052;15.458;2022-08-14T00:31:04;7.50;;;7.10;;
10469;SDS011;5282;47.052;15.458;2022-08-14T00:33:32;6.73;;;6.43;;
10469;SDS011;5282;47.052;15.458;2022-08-14T00:36:00;6.73;;;6.50;;
10469;SDS011;5282;47.052;15.458;2022-08-14T00:38:27;6.83;;;6.63;;
10469;SDS011;5282;47.052;15.458;2022-08-14T00:40:54;7.67;;;7.37;;
10469;SDS011;5282;47.052;15.458;2022-08-14T00:43:21;7.77;;;7.33;;
10469;SDS011;5282;47.052;15.458;2022-08-14T00:45:48;7.90;;;7.60;;
10469;SDS011;5282;47.052;15.458;2022-08-14T00:48:15;7.67;;;7.37;;
10469;SDS011;5282;47.052;15.458;2022-08-14T00:50:43;7.80;;;7.40;;
10469;SDS011;5282;47.052;15.458;2022-08-14T00:53:11;6.87;;;6.67;;
10469;SDS011;5282;47.052;15.458;2022-08-14T00:55:39;7.13;;;6.87;;
10469;SDS011;5282;47.052;15.458;2022-08-14T00:58:08;6.67;;;6.37;;
10469;SDS011;5282;47.052;15.458;2022-08-14T01:00:59;7.17;;;6.77;;
10469;SDS011;5282;47.052;15.458;2022-08-14T01:03:35;6.80;;;6.50;;
10469;SDS011;5282;47.052;15.458;2022-08-14T01:06:09;6.50;;;6.20;;
10469;SDS011;5282;47.052;15.458;2022-08-14T01:08:51;7.13;;;6.83;;
10469;SDS011;5282;47.052;15.458;2022-08-14T01:11:21;7.30;;;6.83;;
10469;SDS011;5282;47.052;15.458;2022-08-14T01:13:48;6.90;;;6.50;;
10469;SDS011;5282;47.052;15.458;2022-08-14T01:16:17;6.67;;;6.37;;
10469;SDS011;5282;47.052;15.458;2022-08-14T01:18:47;6.80;;;6.20;;
10469;SDS011;5282;47.052;15.458;2022-08-14T01:21:33;6.50;;;6.30;;
10469;SDS011;5282;47.052;15.458;2022-08-14T01:24:02;6.70;;;6.50;;
10469;SDS011;5282;47.052;15.458;2022-08-14T01:26:32;6.40;;;6.17;;
10469;SDS011;5282;47.052;15.458;2022-08-14T01:29:03;6.53;;;6.33;;
10469;SDS011;5282;47.052;15.458;2022-08-14T01:31:32;6.80;;;6.50;;
10469;SDS011;5282;47.052;15.458;2022-08-14T01:34:01;6.80;;;6.50;;
10469;SDS011;5282;47.052;15.458;2022-08-14T01:36:32;7.03;;;6.73;;
10469;SDS011;5282;47.052;15.458;2022-08-14T01:39:04;7.00;;;6.70;;
10469;SDS011;5282;47.052;15.458;2022-08-14T01:41:33;6.13;;;5.93;;
10469;SDS011;5282;47.052;15.458;2022-08-14T01:44:03;7.10;;;6.60;;
10469;SDS011;5282;47.052;15.458;2022-08-14T01:46:35;6.57;;;6.17;;
10469;SDS011;5282;47.052;15.458;2022-08-14T01:49:07;6.67;;;6.37;;
10469;SDS011;5282;47.052;15.458;2022-08-14T01:51:37;7.00;;;6.70;;
10469;SDS011;5282;47.052;15.458;2022-08-14T01:54:06;6.20;;;6.00;;
10469;SDS011;5282;47.052;15.458;2022-08-14T01:56:35;7.00;;;6.50;;
10469;SDS011;5282;47.052;15.458;2022-08-14T01:59:04;7.10;;;6.70;;
10469;SDS011;5282;47.052;15.458;2022-08-14T02:01:32;6.37;;;6.17;;
10469;SDS011;5282;47.052;15.458;2022-08-14T02:04:00;6.80;;;6.50;;
10469;SDS011;5282;47.052;15.458;2022-08-14T02:06:28;7.00;;;6.60;;
10469;SDS011;5282;47.052;15.458;2022-08-14T02:08:57;6.80;;;6.57;;
10469;SDS011;5282;47.052;15.458;2022-08-14T02:11:28;6.70;;;6.50;;
10469;SDS011;5282;47.052;15.458;2022-08-14T02:13:57;6.57;;;6.33;;
10469;SDS011;5282;47.052;15.458;2022-08-14T02:16:29;6.67;;;6.37;;
10469;SDS011;5282;47.052;15.458;2022-08-14T02:19:03;6.90;;;6.50;;
10469;SDS011;5282;47.052;15.458;2022-08-14T02:21:32;6.93;;;6.63;;
10469;SDS011;5282;47.052;15.458;2022-08-14T02:24:03;7.17;;;6.93;;
10469;SDS011;5282;47.052;15.458;2022-08-14T02:26:32;6.97;;;6.53;;
10469;SDS011;5282;47.052;15.458;2022-08-14T02:29:02;7.13;;;6.83;;
10469;SDS011;5282;47.052;15.458;2022-08-14T02:31:31;7.00;;;6.60;;
10469;SDS011;5282;47.052;15.458;2022-08-14T02:34:02;7.27;;;6.93;;
10469;SDS011;5282;47.052;15.458;2022-08-14T02:36:31;7.10;;;6.53;;
10469;SDS011;5282;47.052;15.458;2022-08-14T02:38:58;6.93;;;6.63;;
10469;SDS011;5282;47.052;15.458;2022-08-14T02:41:29;7.37;;;6.97;;
10469;SDS011;5282;47.052;15.458;2022-08-14T02:43:56;7.07;;;6.60;;
10469;SDS011;5282;47.052;15.458;2022-08-14T02:46:23;6.87;;;6.47;;
10469;SDS011;5282;47.052;15.458;2022-08-14T02:48:50;6.90;;;6.60;;
10469;SDS011;5282;47.052;15.458;2022-08-14T02:51:17;6.90;;;6.70;;
10469;SDS011;5282;47.052;15.458;2022-08-14T02:53:44;6.73;;;6.33;;
10469;SDS011;5282;47.052;15.458;2022-08-14T02:56:15;6.77;;;6.57;;
10469;SDS011;5282;47.052;15.458;2022-08-14T02:58:46;6.87;;;6.67;;
10469;SDS011;5282;47.052;15.458;2022-08-14T03:01:15;6.07;;;5.87;;
10469;SDS011;5282;47.052;15.458;2022-08-14T03:03:44;6.77;;;6.47;;
10469;SDS011;5282;47.052;15.458;2022-08-14T03:06:13;7.17;;;6.73;;
10469;SDS011;5282;47.052;15.458;2022-08-14T03:08:41;6.80;;;6.50;;
10469;SDS011;5282;47.052;15.458;2022-08-14T03:11:09;6.73;;;6.40;;
10469;SDS011;5282;47.052;15.458;2022-08-14T03:13:38;7.30;;;7.00;;
10469;SDS011;5282;47.052;15.458;2022-08-14T03:16:07;7.17;;;6.80;;
10469;SDS011;5282;47.052;15.458;2022-08-14T03:18:39;6.57;;;6.17;;
10469;SDS011;5282;47.052;15.458;2022-08-14T03:21:12;6.80;;;6.40;;
10469;SDS011;5282;47.052;15.458;2022-08-14T03:23:41;6.83;;;6.53;;
10469;SDS011;5282;47.052;15.458;2022-08-14T03:26:13;7.10;;;6.73;;
10469;SDS011;5282;47.052;15.458;2022-08-14T03:28:42;6.90;;;6.60;;
10469;SDS011;5282;47.052;15.458;2022-08-14T03:31:11;7.07;;;6.67;;
10469;SDS011;5282;47.052;15.458;2022-08-14T03:33:39;7.43;;;7.03;;
10469;SDS011;5282;47.052;15.458;2022-08-14T03:36:07;6.77;;;6.47;;
10469;SDS011;5282;47.052;15.458;2022-08-14T03:38:39;7.00;;;6.70;;
10469;SDS011;5282;47.052;15.458;2022-08-14T03:41:08;6.80;;;6.60;;
10469;SDS011;5282;47.052;15.458;2022-08-14T03:43:38;6.60;;;6.33;;
10469;SDS011;5282;47.052;15.458;2022-08-14T03:46:05;7.13;;;6.83;;
10469;SDS011;5282;47.052;15.458;2022-08-14T03:48:39;7.50;;;7.10;;
10469;SDS011;5282;47.052;15.458;2022-08-14T03:51:06;6.63;;;6.33;;
10469;SDS011;5282;47.052;15.458;2022-08-14T03:53:34;7.07;;;6.63;;
10469;SDS011;5282;47.052;15.458;2022-08-14T03:56:02;7.20;;;6.87;;
10469;SDS011;5282;47.052;15.458;2022-08-14T03:58:30;7.33;;;6.97;;
10469;SDS011;5282;47.052;15.458;2022-08-14T04:00:57;7.40;;;7.03;;
10469;SDS011;5282;47.052;15.458;2022-08-14T04:03:27;6.77;;;6.57;;
10469;SDS011;5282;47.052;15.458;2022-08-14T04:05:55;6.70;;;6.50;;
10469;SDS011;5282;47.052;15.458;2022-08-14T04:08:22;6.77;;;6.57;;
10469;SDS011;5282;47.052;15.458;2022-08-14T04:10:49;7.20;;;7.00;;
10469;SDS011;5282;47.052;15.458;2022-08-14T04:13:16;6.90;;;6.60;;
10469;SDS011;5282;47.052;15.458;2022-08-14T04:15:43;7.67;;;7.13;;
10469;SDS011;5282;47.052;15.458;2022-08-14T04:18:11;7.60;;;7.10;;
10469;SDS011;5282;47.052;15.458;2022-08-14T04:20:41;7.20;;;7.00;;
10469;SDS011;5282;47.052;15.458;2022-08-14T04:23:09;7.67;;;7.27;;
10469;SDS011;5282;47.052;15.458;2022-08-14T04:25:36;7.77;;;7.47;;
10469;SDS011;5282;47.052;15.458;2022-08-14T04:28:05;6.83;;;6.63;;
10469;SDS011;5282;47.052;15.458;2022-08-14T04:30:36;7.40;;;6.83;;
10469;SDS011;5282;47.052;15.458;2022-08-14T04:33:04;7.23;;;6.93;;
10469;SDS011;5282;47.052;15.458;2022-08-14T04:35:32;7.27;;;6.97;;
10469;SDS011;5282;47.052;15.458;2022-08-14T04:38:04;7.77;;;7.37;;
10469;SDS011;5282;47.052;15.458;2022-08-14T04:40:50;7.70;;;7.40;;
10469;SDS011;5282;47.052;15.458;2022-08-14T04:43:34;8.00;;;7.40;;
10469;SDS011;5282;47.052;15.458;2022-08-14T04:46:02;7.27;;;6.87;;
10469;SDS011;5282;47.052;15.458;2022-08-14T04:48:30;7.60;;;7.10;;
10469;SDS011;5282;47.052;15.458;2022-08-14T04:50:56;8.20;;;7.80;;
10469;SDS011;5282;47.052;15.458;2022-08-14T04:53:25;7.17;;;6.87;;
10469;SDS011;5282;47.052;15.458;2022-08-14T04:55:54;7.90;;;7.57;;
10469;SDS011;5282;47.052;15.458;2022-08-14T04:58:22;7.70;;;7.40;;
10469;SDS011;5282;47.052;15.458;2022-08-14T05:00:51;7.63;;;7.27;;
10469;SDS011;5282;47.052;15.458;2022-08-14T05:03:20;8.43;;;7.97;;
10469;SDS011;5282;47.052;15.458;2022-08-14T05:05:48;8.57;;;8.07;;
10469;SDS011;5282;47.052;15.458;2022-08-14T05:08:16;7.63;;;7.33;;
10469;SDS011;5282;47.052;15.458;2022-08-14T05:10:47;8.47;;;7.87;;
10469;SDS011;5282;47.052;15.458;2022-08-14T05:13:18;8.23;;;7.80;;
10469;SDS011;5282;47.052;15.458;2022-08-14T05:15:45;7.77;;;7.47;;
10469;SDS011;5282;47.052;15.458;2022-08-14T05:18:14;8.27;;;7.87;;
10469;SDS011;5282;47.052;15.458;2022-08-14T05:20:44;8.73;;;8.23;;
10469;SDS011;5282;47.052;15.458;2022-08-14T05:23:13;9.50;;;8.80;;
10469;SDS011;5282;47.052;15.458;2022-08-14T05:25:43;8.63;;;8.10;;
10469;SDS011;5282;47.052;15.458;2022-08-14T05:28:12;7.83;;;7.50;;
10469;SDS011;5282;47.052;15.458;2022-08-14T05:30:46;8.20;;;7.70;;
10469;SDS011;5282;47.052;15.458;2022-08-14T05:33:14;8.13;;;7.80;;
10469;SDS011;5282;47.052;15.458;2022-08-14T05:35:45;8.50;;;8.00;;
10469;SDS011;5282;47.052;15.458;2022-08-14T05:38:14;7.80;;;7.50;;
10469;SDS011;5282;47.052;15.458;2022-08-14T05:40:43;8.53;;;8.10;;
10469;SDS011;5282;47.052;15.458;2022-08-14T05:43:11;8.70;;;8.13;;
10469;SDS011;5282;47.052;15.458;2022-08-14T05:45:39;8.73;;;8.13;;
10469;SDS011;5282;47.052;15.458;2022-08-14T05:48:12;8.80;;;8.20;;
10469;SDS011;5282;47.052;15.458;2022-08-14T05:50:40;7.83;;;7.53;;
10469;SDS011;5282;47.052;15.458;2022-08-14T05:53:07;8.83;;;8.33;;
10469;SDS011;5282;47.052;15.458;2022-08-14T05:55:34;8.73;;;8.20;;
10469;SDS011;5282;47.052;15.458;2022-08-14T05:58:02;8.17;;;7.67;;
10469;SDS011;5282;47.052;15.458;2022-08-14T06:00:32;8.80;;;8.40;;
10469;SDS011;5282;47.052;15.458;2022-08-14T06:03:01;9.33;;;8.73;;
10469;SDS011;5282;47.052;15.458;2022-08-14T06:05:31;8.97;;;8.30;;
10469;SDS011;5282;47.052;15.458;2022-08-14T06:07:58;8.60;;;8.20;;
10469;SDS011;5282;47.052;15.458;2022-08-14T06:10:26;8.43;;;7.80;;
10469;SDS011;5282;47.052;15.458;2022-08-14T06:12:54;8.20;;;7.90;;
10469;SDS011;5282;47.052;15.458;2022-08-14T06:15:21;8.73;;;8.33;;
10469;SDS011;5282;47.052;15.458;2022-08-14T06:17:49;9.13;;;8.53;;
10469;SDS011;5282;47.052;15.458;2022-08-14T06:20:18;9.07;;;8.57;;
10469;SDS011;5282;47.052;15.458;2022-08-14T06:22:46;9.57;;;8.83;;
10469;SDS011;5282;47.052;15.458;2022-08-14T06:25:13;7.90;;;7.60;;
10469;SDS011;5282;47.052;15.458;2022-08-14T06:27:42;13.80;;;12.60;;
10469;SDS011;5282;47.052;15.458;2022-08-14T06:30:13;14.93;;;13.47;;
10469;SDS011;5282;47.052;15.458;2022-08-14T06:32:42;9.90;;;9.10;;
10469;SDS011;5282;47.052;15.458;2022-08-14T06:35:10;8.50;;;8.10;;
10469;SDS011;5282;47.052;15.458;2022-08-14T06:37:42;8.77;;;8.10;;
10469;SDS011;5282;47.052;15.458;2022-08-14T06:40:14;8.03;;;7.63;;
10469;SDS011;5282;47.052;15.458;2022-08-14T06:42:42;8.90;;;8.20;;
10469;SDS011;5282;47.052;15.458;2022-08-14T06:45:10;8.00;;;7.67;;
10469;SDS011;5282;47.052;15.458;2022-08-14T06:47:38;8.13;;;7.53;;
10469;SDS011;5282;47.052;15.458;2022-08-14T06:50:08;7.70;;;7.30;;
10469;SDS011;5282;47.052;15.458;2022-08-14T06:52:37;8.13;;;7.80;;
10469;SDS011;5282;47.052;15.458;2022-08-14T06:55:08;8.63;;;8.13;;
10469;SDS011;5282;47.052;15.458;2022-08-14T06:57:39;7.67;;;7.37;;
10469;SDS011;5282;47.052;15.458;2022-08-14T07:00:08;7.40;;;7.10;;
10469;SDS011;5282;47.052;15.458;2022-08-14T07:02:36;7.90;;;7.50;;
10469;SDS011;5282;47.052;15.458;2022-08-14T07:05:21;8.10;;;7.40;;
10469;SDS011;5282;47.052;15.458;2022-08-14T07:08:05;7.40;;;6.97;;
10469;SDS011;5282;47.052;15.458;2022-08-14T07:10:39;7.67;;;7.27;;
10469;SDS011;5282;47.052;15.458;2022-08-14T07:13:10;7.40;;;7.00;;
10469;SDS011;5282;47.052;15.458;2022-08-14T07:15:39;7.77;;;7.17;;
10469;SDS011;5282;47.052;15.458;2022-08-14T07:18:07;6.97;;;6.67;;
10469;SDS011;5282;47.052;15.458;2022-08-14T07:20:34;7.03;;;6.83;;
10469;SDS011;5282;47.052;15.458;2022-08-14T07:23:02;7.13;;;6.83;;
10469;SDS011;5282;47.052;15.458;2022-08-14T07:25:31;6.97;;;6.50;;
10469;SDS011;5282;47.052;15.458;2022-08-14T07:27:59;6.80;;;6.50;;
10469;SDS011;5282;47.052;15.458;2022-08-14T07:30:28;6.87;;;6.57;;
10469;SDS011;5282;47.052;15.458;2022-08-14T07:32:55;6.77;;;6.47;;
10469;SDS011;5282;47.052;15.458;2022-08-14T07:35:22;6.87;;;6.37;;
10469;SDS011;5282;47.052;15.458;2022-08-14T07:37:49;7.03;;;6.60;;
10469;SDS011;5282;47.052;15.458;2022-08-14T07:40:18;6.60;;;6.30;;
10469;SDS011;5282;47.052;15.458;2022-08-14T07:42:45;6.40;;;6.03;;
10469;SDS011;5282;47.052;15.458;2022-08-14T07:45:12;7.03;;;6.63;;
10469;SDS011;5282;47.052;15.458;2022-08-14T07:47:41;6.13;;;5.83;;
10469;SDS011;5282;47.052;15.458;2022-08-14T07:50:10;6.70;;;6.37;;
10469;SDS011;5282;47.052;15.458;2022-08-14T07:52:39;6.57;;;6.27;;
10469;SDS011;5282;47.052;15.458;2022-08-14T07:55:07;6.60;;;6.20;;
10469;SDS011;5282;47.052;15.458;2022-08-14T07:57:35;6.70;;;6.30;;
10469;SDS011;5282;47.052;15.458;2022-08-14T08:00:04;6.70;;;6.40;;
10469;SDS011;5282;47.052;15.458;2022-08-14T08:02:35;6.80;;;6.27;;
10469;SDS011;5282;47.052;15.458;2022-08-14T08:05:07;6.13;;;5.83;;
10469;SDS011;5282;47.052;15.458;2022-08-14T08:07:35;6.80;;;6.40;;
10469;SDS011;5282;47.052;15.458;2022-08-14T08:10:04;6.33;;;5.93;;
10469;SDS011;5282;47.052;15.458;2022-08-14T08:12:52;6.30;;;6.07;;
10469;SDS011;5282;47.052;15.458;2022-08-14T08:15:24;6.47;;;6.20;;
10469;SDS011;5282;47.052;15.458;2022-08-14T08:17:52;6.60;;;6.30;;
10469;SDS011;5282;47.052;15.458;2022-08-14T08:20:22;6.00;;;5.80;;
10469;SDS011;5282;47.052;15.458;2022-08-14T08:22:51;6.03;;;5.83;;
10469;SDS011;5282;47.052;15.458;2022-08-14T08:25:21;6.30;;;6.00;;
10469;SDS011;5282;47.052;15.458;2022-08-14T08:27:55;6.37;;;5.83;;
10469;SDS011;5282;47.052;15.458;2022-08-14T08:30:25;5.83;;;5.63;;
10469;SDS011;5282;47.052;15.458;2022-08-14T08:32:57;7.00;;;6.60;;
10469;SDS011;5282;47.052;15.458;2022-08-14T08:35:27;6.73;;;6.23;;
10469;SDS011;5282;47.052;15.458;2022-08-14T08:37:59;6.10;;;5.90;;
10469;SDS011;5282;47.052;15.458;2022-08-14T08:40:28;6.30;;;6.00;;
10469;SDS011;5282;47.052;15.458;2022-08-14T08:43:00;6.10;;;5.80;;
10469;SDS011;5282;47.052;15.458;2022-08-14T08:45:27;6.03;;;5.83;;
10469;SDS011;5282;47.052;15.458;2022-08-14T08:47:54;6.03;;;5.73;;
10469;SDS011;5282;47.052;15.458;2022-08-14T08:50:21;5.73;;;5.60;;
10469;SDS011;5282;47.052;15.458;2022-08-14T08:52:53;6.33;;;5.93;;
10469;SDS011;5282;47.052;15.458;2022-08-14T08:55:27;5.93;;;5.73;;
10469;SDS011;5282;47.052;15.458;2022-08-14T08:57:57;5.80;;;5.50;;
10469;SDS011;5282;47.052;15.458;2022-08-14T09:00:25;5.70;;;5.50;;
10469;SDS011;5282;47.052;15.458;2022-08-14T09:02:59;5.37;;;5.17;;
10469;SDS011;5282;47.052;15.458;2022-08-14T09:05:29;5.90;;;5.63;;
10469;SDS011;5282;47.052;15.458;2022-08-14T09:08:12;5.40;;;5.30;;
10469;SDS011;5282;47.052;15.458;2022-08-14T09:10:41;5.60;;;5.40;;
10469;SDS011;5282;47.052;15.458;2022-08-14T09:13:11;5.17;;;5.07;;
10469;SDS011;5282;47.052;15.458;2022-08-14T09:15:38;5.90;;;5.60;;
10469;SDS011;5282;47.052;15.458;2022-08-14T09:18:06;5.10;;;5.00;;
10469;SDS011;5282;47.052;15.458;2022-08-14T09:20:36;5.13;;;4.93;;
10469;SDS011;5282;47.052;15.458;2022-08-14T09:23:05;5.28;;;5.18;;
10469;SDS011;5282;47.052;15.458;2022-08-14T09:25:35;4.75;;;4.65;;
10469;SDS011;5282;47.052;15.458;2022-08-14T09:28:03;4.82;;;4.72;;
10469;SDS011;5282;47.052;15.458;2022-08-14T09:30:31;5.05;;;4.85;;
10469;SDS011;5282;47.052;15.458;2022-08-14T09:33:14;5.32;;;5.13;;
10469;SDS011;5282;47.052;15.458;2022-08-14T09:36:02;5.38;;;4.97;;
10469;SDS011;5282;47.052;15.458;2022-08-14T09:38:53;5.10;;;4.70;;
10469;SDS011;5282;47.052;15.458;2022-08-14T09:41:33;4.68;;;4.57;;
10469;SDS011;5282;47.052;15.458;2022-08-14T09:44:17;4.70;;;4.60;;
10469;SDS011;5282;47.052;15.458;2022-08-14T09:46:54;4.65;;;4.55;;
10469;SDS011;5282;47.052;15.458;2022-08-14T09:49:29;4.70;;;4.50;;
10469;SDS011;5282;47.052;15.458;2022-08-14T09:52:02;5.25;;;5.05;;
10469;SDS011;5282;47.052;15.458;2022-08-14T09:54:34;5.18;;;5.00;;
10469;SDS011;5282;47.052;15.458;2022-08-14T09:57:05;4.60;;;4.47;;
10469;SDS011;5282;47.052;15.458;2022-08-14T09:59:38;4.95;;;4.85;;
10469;SDS011;5282;47.052;15.458;2022-08-14T10:02:18;4.90;;;4.50;;
10469;SDS011;5282;47.052;15.458;2022-08-14T10:04:57;5.07;;;4.93;;
10469;SDS011;5282;47.052;15.458;2022-08-14T10:07:30;5.10;;;4.93;;
10469;SDS011;5282;47.052;15.458;2022-08-14T10:09:58;5.55;;;5.28;;
10469;SDS011;5282;47.052;15.458;2022-08-14T10:12:37;5.03;;;4.93;;
10469;SDS011;5282;47.052;15.458;2022-08-14T10:15:14;5.13;;;5.03;;
10469;SDS011;5282;47.052;15.458;2022-08-14T10:17:43;5.20;;;5.10;;
10469;SDS011;5282;47.052;15.458;2022-08-14T10:20:10;5.03;;;4.82;;
10469;SDS011;5282;47.052;15.458;2022-08-14T10:22:40;5.47;;;5.18;;
10469;SDS011;5282;47.052;15.458;2022-08-14T10:25:10;5.75;;;5.38;;
10469;SDS011;5282;47.052;15.458;2022-08-14T10:27:43;5.63;;;5.43;;
10469;SDS011;5282;47.052;15.458;2022-08-14T10:30:16;5.30;;;5.00;;
10469;SDS011;5282;47.052;15.458;2022-08-14T10:32:44;5.53;;;5.32;;
10469;SDS011;5282;47.052;15.458;2022-08-14T10:35:14;5.18;;;5.03;;
10469;SDS011;5282;47.052;15.458;2022-08-14T10:37:44;5.72;;;5.50;;
10469;SDS011;5282;47.052;15.458;2022-08-14T10:40:23;5.60;;;5.40;;
10469;SDS011;5282;47.052;15.458;2022-08-14T10:42:54;5.30;;;5.00;;
10469;SDS011;5282;47.052;15.458;2022-08-14T10:45:21;5.60;;;5.40;;
10469;SDS011;5282;47.052;15.458;2022-08-14T10:47:49;5.55;;;5.45;;
10469;SDS011;5282;47.052;15.458;2022-08-14T10:50:27;5.65;;;5.45;;
10469;SDS011;5282;47.052;15.458;2022-08-14T10:52:55;5.03;;;4.93;;
10469;SDS011;5282;47.052;15.458;2022-08-14T10:55:30;5.70;;;5.40;;
10469;SDS011;5282;47.052;15.458;2022-08-14T10:58:05;5.85;;;5.70;;
10469;SDS011;5282;47.052;15.458;2022-08-14T11:00:36;4.97;;;4.88;;
10469;SDS011;5282;47.052;15.458;2022-08-14T11:03:05;7.43;;;7.03;;
10469;SDS011;5282;47.052;15.458;2022-08-14T11:05:38;6.63;;;6.22;;
10469;SDS011;5282;47.052;15.458;2022-08-14T11:08:07;5.40;;;5.18;;
10469;SDS011;5282;47.052;15.458;2022-08-14T11:10:39;5.00;;;4.80;;
10469;SDS011;5282;47.052;15.458;2022-08-14T11:13:13;5.20;;;5.00;;
10469;SDS011;5282;47.052;15.458;2022-08-14T11:15:41;5.47;;;5.07;;
10469;SDS011;5282;47.052;15.458;2022-08-14T11:18:10;5.28;;;5.10;;
10469;SDS011;5282;47.052;15.458;2022-08-14T11:20:37;6.22;;;6.03;;
10469;SDS011;5282;47.052;15.458;2022-08-14T11:23:07;5.53;;;5.38;;
10469;SDS011;5282;47.052;15.458;2022-08-14T11:25:37;5.13;;;5.03;;
10469;SDS011;5282;47.052;15.458;2022-08-14T11:28:04;5.13;;;5.03;;
10469;SDS011;5282;47.052;15.458;2022-08-14T11:30:34;5.60;;;5.40;;
10469;SDS011;5282;47.052;15.458;2022-08-14T11:33:05;5.03;;;4.93;;
10469;SDS011;5282;47.052;15.458;2022-08-14T11:35:33;5.60;;;5.35;;
10469;SDS011;5282;47.052;15.458;2022-08-14T11:38:03;5.30;;;5.10;;
10469;SDS011;5282;47.052;15.458;2022-08-14T11:40:32;4.97;;;4.78;;
10469;SDS011;5282;47.052;15.458;2022-08-14T11:43:02;5.43;;;5.25;;
10469;SDS011;5282;47.052;15.458;2022-08-14T11:45:31;5.63;;;5.43;;
10469;SDS011;5282;47.052;15.458;2022-08-14T11:48:12;5.53;;;5.32;;
10469;SDS011;5282;47.052;15.458;2022-08-14T11:50:40;5.60;;;5.40;;
10469;SDS011;5282;47.052;15.458;2022-08-14T11:53:16;5.22;;;5.03;;
10469;SDS011;5282;47.052;15.458;2022-08-14T11:55:46;5.47;;;5.35;;
10469;SDS011;5282;47.052;15.458;2022-08-14T11:58:15;5.00;;;4.90;;
10469;SDS011;5282;47.052;15.458;2022-08-14T12:00:47;5.00;;;4.90;;
10469;SDS011;5282;47.052;15.458;2022-08-14T12:03:17;5.72;;;5.53;;
10469;SDS011;5282;47.052;15.458;2022-08-14T12:05:44;5.75;;;5.32;;
10469;SDS011;5282;47.052;15.458;2022-08-14T12:08:14;5.40;;;5.10;;
10469;SDS011;5282;47.052;15.458;2022-08-14T12:10:42;5.65;;;5.55;;
10469;SDS011;5282;47.052;15.458;2022-08-14T12:13:10;5.50;;;5.35;;
10469;SDS011;5282;47.052;15.458;2022-08-14T12:15:39;5.43;;;5.22;;
10469;SDS011;5282;47.052;15.458;2022-08-14T12:18:08;5.13;;;4.93;;
10469;SDS011;5282;47.052;15.458;2022-08-14T12:20:37;5.30;;;5.20;;
10469;SDS011;5282;47.052;15.458;2022-08-14T12:23:18;5.68;;;5.47;;
10469;SDS011;5282;47.052;15.458;2022-08-14T12:25:47;5.00;;;4.80;;
10469;SDS011;5282;47.052;15.458;2022-08-14T12:28:14;5.32;;;5.13;;
10469;SDS011;5282;47.052;15.458;2022-08-14T12:30:42;5.40;;;5.20;;
10469;SDS011;5282;47.052;15.458;2022-08-14T12:33:22;5.93;;;5.72;;
10469;SDS011;5282;47.052;15.458;2022-08-14T12:35:51;6.30;;;6.10;;
10469;SDS011;5282;47.052;15.458;2022-08-14T12:38:30;5.53;;;5.32;;
10469;SDS011;5282;47.052;15.458;2022-08-14T12:41:00;5.93;;;5.70;;
10469;SDS011;5282;47.052;15.458;2022-08-14T12:43:28;6.00;;;5.70;;
10469;SDS011;5282;47.052;15.458;2022-08-14T12:45:55;5.95;;;5.63;;
10469;SDS011;5282;47.052;15.458;2022-08-14T12:48:23;6.28;;;6.07;;
10469;SDS011;5282;47.052;15.458;2022-08-14T12:50:53;10.75;;;9.82;;
10469;SDS011;5282;47.052;15.458;2022-08-14T12:53:31;10.75;;;9.95;;
10469;SDS011;5282;47.052;15.458;2022-08-14T12:56:01;5.22;;;5.03;;
10469;SDS011;5282;47.052;15.458;2022-08-14T12:58:29;6.45;;;6.15;;
10469;SDS011;5282;47.052;15.458;2022-08-14T13:00:56;5.75;;;5.55;;
10469;SDS011;5282;47.052;15.458;2022-08-14T13:03:27;5.65;;;5.45;;
10469;SDS011;5282;47.052;15.458;2022-08-14T13:05:57;5.30;;;5.10;;
10469;SDS011;5282;47.052;15.458;2022-08-14T13:08:24;6.45;;;6.25;;
10469;SDS011;5282;47.052;15.458;2022-08-14T13:10:51;4.93;;;4.82;;
10469;SDS011;5282;47.052;15.458;2022-08-14T13:13:22;5.07;;;4.97;;
10469;SDS011;5282;47.052;15.458;2022-08-14T13:15:55;4.90;;;4.80;;
10469;SDS011;5282;47.052;15.458;2022-08-14T13:18:23;5.10;;;4.80;;
10469;SDS011;5282;47.052;15.458;2022-08-14T13:20:53;5.30;;;5.10;;
10469;SDS011;5282;47.052;15.458;2022-08-14T13:23:23;5.25;;;5.15;;
10469;SDS011;5282;47.052;15.458;2022-08-14T13:25:53;4.60;;;4.50;;
10469;SDS011;5282;47.052;15.458;2022-08-14T13:28:22;5.75;;;5.55;;
10469;SDS011;5282;47.052;15.458;2022-08-14T13:30:51;5.20;;;5.00;;
10469;SDS011;5282;47.052;15.458;2022-08-14T13:33:21;5.82;;;5.63;;
10469;SDS011;5282;47.052;15.458;2022-08-14T13:35:49;4.90;;;4.80;;
10469;SDS011;5282;47.052;15.458;2022-08-14T13:38:18;5.18;;;4.90;;
10469;SDS011;5282;47.052;15.458;2022-08-14T13:40:47;4.82;;;4.63;;
10469;SDS011;5282;47.052;15.458;2022-08-14T13:43:20;4.72;;;4.53;;
10469;SDS011;5282;47.052;15.458;2022-08-14T13:45:49;5.25;;;5.15;;
10469;SDS011;5282;47.052;15.458;2022-08-14T13:48:16;5.03;;;4.90;;
10469;SDS011;5282;47.052;15.458;2022-08-14T13:50:44;4.95;;;4.75;;
10469;SDS011;5282;47.052;15.458;2022-08-14T13:53:15;5.50;;;5.30;;
10469;SDS011;5282;47.052;15.458;2022-08-14T13:55:44;5.35;;;5.15;;
10469;SDS011;5282;47.052;15.458;2022-08-14T13:58:14;5.28;;;4.93;;
10469;SDS011;5282;47.052;15.458;2022-08-14T14:00:42;5.00;;;4.90;;
10469;SDS011;5282;47.052;15.458;2022-08-14T14:03:12;4.95;;;4.85;;
10469;SDS011;5282;47.052;15.458;2022-08-14T14:05:40;5.15;;;4.90;;
10469;SDS011;5282;47.052;15.458;2022-08-14T14:08:09;5.25;;;5.03;;
10469;SDS011;5282;47.052;15.458;2022-08-14T14:10:38;4.95;;;4.80;;
10469;SDS011;5282;47.052;15.458;2022-08-14T14:13:08;5.45;;;5.35;;
10469;SDS011;5282;47.052;15.458;2022-08-14T14:15:35;4.75;;;4.65;;
10469;SDS011;5282;47.052;15.458;2022-08-14T14:18:03;5.47;;;5.25;;
10469;SDS011;5282;47.052;15.458;2022-08-14T14:20:30;4.93;;;4.82;;
10469;SDS011;5282;47.052;15.458;2022-08-14T14:22:57;5.25;;;5.05;;
10469;SDS011;5282;47.052;15.458;2022-08-14T14:25:24;4.80;;;4.45;;
10469;SDS011;5282;47.052;15.458;2022-08-14T14:27:51;5.47;;;5.38;;
10469;SDS011;5282;47.052;15.458;2022-08-14T14:30:25;4.72;;;4.57;;
10469;SDS011;5282;47.052;15.458;2022-08-14T14:32:53;4.88;;;4.68;;
10469;SDS011;5282;47.052;15.458;2022-08-14T14:35:21;4.97;;;4.88;;
10469;SDS011;5282;47.052;15.458;2022-08-14T14:37:48;5.07;;;4.97;;
10469;SDS011;5282;47.052;15.458;2022-08-14T14:40:16;5.00;;;4.80;;
10469;SDS011;5282;47.052;15.458;2022-08-14T14:42:44;5.40;;;5.20;;
10469;SDS011;5282;47.052;15.458;2022-08-14T14:45:15;5.03;;;4.72;;
10469;SDS011;5282;47.052;15.458;2022-08-14T14:47:46;4.88;;;4.78;;
10469;SDS011;5282;47.052;15.458;2022-08-14T14:50:15;4.75;;;4.55;;
10469;SDS011;5282;47.052;15.458;2022-08-14T14:52:44;4.85;;;4.65;;
10469;SDS011;5282;47.052;15.458;2022-08-14T14:55:14;5.03;;;4.75;;
10469;SDS011;5282;47.052;15.458;2022-08-14T14:57:43;4.60;;;4.50;;
10469;SDS011;5282;47.052;15.458;2022-08-14T15:00:11;4.75;;;4.65;;
10469;SDS011;5282;47.052;15.458;2022-08-14T15:02:41;4.78;;;4.57;;
10469;SDS011;5282;47.052;15.458;2022-08-14T15:05:13;4.90;;;4.80;;